createdAt,value
2022-11-22T00:05:59.312Z,58.90
2022-11-22T00:16:02.619Z,53.13
2022-11-22T00:26:07.227Z,56.57
2022-11-22T00:36:17.419Z,64.87
2022-11-22T00:46:19.928Z,48.93
2022-11-22T00:56:21.874Z,68.53
2022-11-22T01:06:23.909Z,63.73
2022-11-22T01:16:26.002Z,58.43
2022-11-22T01:26:29.063Z,68.30
2022-11-22T01:36:33.731Z,62.77
2022-11-22T01:46:39.892Z,57.10
2022-11-22T01:56:50.527Z,61.87
2022-11-22T02:07:07.292Z,66.83
2022-11-22T02:17:12.657Z,69.40
2022-11-22T02:27:17.608Z,80.00
2022-11-22T02:37:26.813Z,79.80
2022-11-22T02:47:28.815Z,74.90
2022-11-22T02:57:30.902Z,87.97
2022-11-22T03:07:35.216Z,85.07
2022-11-22T03:17:39.914Z,74.47
2022-11-22T03:27:44.484Z,76.00
2022-11-22T03:37:46.453Z,88.77
2022-11-22T03:47:50.626Z,87.57
2022-11-22T03:57:55.322Z,72.40
2022-11-22T04:07:57.402Z,70.37
2022-11-22T04:17:59.451Z,59.83
2022-11-22T04:28:08.536Z,77.97
2022-11-22T04:38:13.602Z,101.97
2022-11-22T04:48:16.385Z,81.07
2022-11-22T04:58:19.106Z,93.83
2022-11-22T05:08:21.336Z,96.80
2022-11-22T05:18:26.823Z,100.63
2022-11-22T05:28:32.422Z,110.47
2022-11-22T05:38:39.876Z,107.43
2022-11-22T05:48:44.129Z,120.70
2022-11-22T05:58:46.325Z,97.87
2022-11-22T06:08:48.872Z,149.80
2022-11-22T06:18:54.991Z,117.13
2022-11-22T06:29:01.581Z,103.53
2022-11-22T06:39:04.189Z,123.60
2022-11-22T06:49:11.489Z,103.60
2022-11-22T06:59:13.710Z,127.30
2022-11-22T07:09:16.756Z,145.37
2022-11-22T07:19:21.259Z,139.47
2022-11-22T07:29:26.234Z,145.33
2022-11-22T07:39:28.465Z,167.13
2022-11-22T07:49:33.058Z,145.63
2022-11-22T07:59:35.160Z,138.60
2022-11-22T08:09:37.162Z,143.73
2022-11-22T08:19:43.716Z,137.40
2022-11-22T08:29:45.771Z,163.03
2022-11-22T08:39:47.740Z,162.20
2022-11-22T08:49:49.927Z,141.33
2022-11-22T08:59:51.931Z,133.27
2022-11-22T09:09:54.044Z,111.23
2022-11-22T09:19:56.095Z,118.90
2022-11-22T09:29:58.120Z,116.97
2022-11-22T09:40:00.166Z,52.57
2022-11-22T09:50:17.550Z,83.23
2022-11-22T10:00:26.129Z,118.47
2022-11-22T10:10:36.714Z,95.87
2022-11-22T10:20:48.490Z,100.00
2022-11-22T10:31:00.574Z,115.80
2022-11-22T10:41:14.355Z,105.83
2022-11-22T10:51:27.536Z,82.20
2022-11-22T11:01:42.734Z,70.93
2022-11-22T11:11:45.838Z,45.47
2022-11-22T11:22:01.294Z,62.27
2022-11-22T11:32:17.129Z,62.13
2022-11-22T11:42:24.388Z,53.10
2022-11-22T11:52:28.874Z,58.17
2022-11-22T12:02:46.707Z,42.43
2022-11-22T12:13:02.991Z,50.47
2022-11-22T12:23:24.979Z,45.30
2022-11-22T12:33:45.022Z,50.57
2022-11-22T12:43:58.563Z,48.03
2022-11-22T12:54:08.966Z,44.93
2022-11-22T13:04:19.652Z,40.27
2022-11-22T13:14:28.254Z,43.93
2022-11-22T13:24:55.147Z,15.73
2022-11-22T13:35:08.099Z,39.30
2022-11-22T13:45:24.806Z,31.47
2022-11-22T13:55:42.340Z,29.80
2022-11-22T14:05:49.866Z,34.23
2022-11-22T14:16:05.397Z,41.70
2022-11-22T14:26:28.713Z,35.93
2022-11-22T14:36:33.200Z,36.30
2022-11-22T14:46:58.042Z,41.67
2022-11-22T14:57:04.486Z,26.73
2022-11-22T15:09:13.287Z,41.77
2022-11-22T15:59:48.693Z,64.50
2022-11-22T16:09:51.629Z,54.83
2022-11-22T16:20:12.060Z,45.93
2022-11-22T16:30:22.228Z,56.70
2022-11-22T16:40:28.237Z,56.10
2022-11-22T16:50:32.363Z,52.20
2022-11-22T17:00:37.942Z,58.17
2022-11-22T17:10:43.237Z,63.00
2022-11-22T17:20:48.383Z,67.33
2022-11-22T17:30:50.601Z,67.73
2022-11-22T17:41:03.384Z,71.33
2022-11-22T17:51:12.951Z,70.03
2022-11-22T18:01:25.273Z,42.10
2022-11-22T18:11:27.326Z,63.93
2022-11-22T18:21:30.645Z,72.47
2022-11-22T18:31:51.080Z,66.47
2022-11-22T18:41:59.254Z,61.30
2022-11-22T18:52:04.160Z,76.13
2022-11-22T19:02:08.941Z,69.53
2022-11-22T19:12:11.322Z,60.80
2022-11-22T19:22:17.900Z,55.80
2022-11-22T19:32:19.996Z,76.67
2022-11-22T19:42:27.047Z,61.63
2022-11-22T19:52:31.559Z,68.43
2022-11-22T20:02:33.798Z,73.30
2022-11-22T20:12:38.399Z,70.77
2022-11-22T20:22:41.389Z,70.53
2022-11-22T20:32:46.632Z,68.80
2022-11-22T20:42:50.868Z,67.47
2022-11-22T20:52:54.820Z,79.00
2022-11-22T21:03:01.332Z,80.17
2022-11-22T21:13:12.971Z,71.83
2022-11-22T21:23:17.926Z,62.90
2022-11-22T21:33:25.783Z,71.53
2022-11-22T21:43:29.619Z,67.17
2022-11-22T21:53:41.304Z,69.77
2022-11-22T22:03:44.365Z,61.83
2022-11-22T22:13:47.553Z,59.83
2022-11-22T22:23:51.208Z,67.43
2022-11-22T22:33:57.553Z,70.60
2022-11-22T22:44:04.907Z,46.23
2022-11-22T22:54:06.925Z,56.17
2022-11-22T23:04:12.623Z,22.43
2022-11-22T23:14:22.052Z,34.93
2022-11-22T23:24:25.675Z,74.47
2022-11-22T23:34:28.149Z,78.30
2022-11-22T23:44:33.728Z,62.40
2022-11-22T23:54:38.271Z,72.13
